sensor_id;sensor_type;location;lat;lon;timestamp;P1;durP1;ratioP1;P2;durP2;ratioP2
9942;SDS011;5010;45.080;7.634;2023-01-28T11:36:11;14.57;;;9.90;;
9942;SDS011;5010;45.080;7.634;2023-01-28T11:38:46;11.13;;;10.38;;
9942;SDS011;5010;45.080;7.634;2023-01-28T11:41:15;14.07;;;11.63;;
9942;SDS011;5010;45.080;7.634;2023-01-28T11:43:52;13.43;;;9.77;;
9942;SDS011;5010;45.080;7.634;2023-01-28T11:46:22;14.30;;;10.85;;
9942;SDS011;5010;45.080;7.634;2023-01-28T11:49:04;13.85;;;11.82;;
9942;SDS011;5010;45.080;7.634;2023-01-28T11:51:43;12.52;;;9.25;;
9942;SDS011;5010;45.080;7.634;2023-01-28T11:54:20;17.08;;;9.70;;
9942;SDS011;5010;45.080;7.634;2023-01-28T11:57:03;14.00;;;10.45;;
9942;SDS011;5010;45.080;7.634;2023-01-28T11:59:50;12.93;;;11.13;;
9942;SDS011;5010;45.080;7.634;2023-01-28T12:02:28;14.43;;;9.70;;
9942;SDS011;5010;45.080;7.634;2023-01-28T12:05:15;18.40;;;9.70;;
9942;SDS011;5010;45.080;7.634;2023-01-28T12:07:59;13.13;;;11.18;;
9942;SDS011;5010;45.080;7.634;2023-01-28T12:10:34;15.75;;;10.80;;
9942;SDS011;5010;45.080;7.634;2023-01-28T12:13:08;15.90;;;11.88;;
9942;SDS011;5010;45.080;7.634;2023-01-28T12:18:53;11.65;;;9.00;;
9942;SDS011;5010;45.080;7.634;2023-01-28T12:21:37;14.20;;;11.18;;
9942;SDS011;5010;45.080;7.634;2023-01-28T12:24:19;15.13;;;11.05;;
9942;SDS011;5010;45.080;7.634;2023-01-28T12:26:58;12.85;;;10.77;;
9942;SDS011;5010;45.080;7.634;2023-01-28T12:29:32;12.77;;;12.10;;
9942;SDS011;5010;45.080;7.634;2023-01-28T12:32:12;11.07;;;10.50;;
9942;SDS011;5010;45.080;7.634;2023-01-28T12:35:08;11.95;;;10.15;;
9942;SDS011;5010;45.080;7.634;2023-01-28T12:37:52;12.90;;;10.48;;
9942;SDS011;5010;45.080;7.634;2023-01-28T12:40:36;14.00;;;11.15;;
9942;SDS011;5010;45.080;7.634;2023-01-28T12:43:24;11.32;;;10.75;;
9942;SDS011;5010;45.080;7.634;2023-01-28T12:46:03;14.40;;;11.20;;
9942;SDS011;5010;45.080;7.634;2023-01-28T12:48:38;13.10;;;12.40;;
9942;SDS011;5010;45.080;7.634;2023-01-28T12:51:09;9.93;;;9.48;;
9942;SDS011;5010;45.080;7.634;2023-01-28T12:53:40;11.77;;;10.35;;
9942;SDS011;5010;45.080;7.634;2023-01-28T12:56:13;11.20;;;10.15;;
9942;SDS011;5010;45.080;7.634;2023-01-28T12:58:44;13.50;;;10.63;;
9942;SDS011;5010;45.080;7.634;2023-01-28T13:01:17;14.10;;;9.52;;
9942;SDS011;5010;45.080;7.634;2023-01-28T13:03:49;11.02;;;8.50;;
9942;SDS011;5010;45.080;7.634;2023-01-28T13:06:22;13.98;;;11.80;;
9942;SDS011;5010;45.080;7.634;2023-01-28T13:08:55;12.90;;;9.30;;
9942;SDS011;5010;45.080;7.634;2023-01-28T13:11:29;11.52;;;9.27;;
9942;SDS011;5010;45.080;7.634;2023-01-28T13:13:59;11.73;;;9.68;;
9942;SDS011;5010;45.080;7.634;2023-01-28T13:16:27;11.45;;;9.70;;
9942;SDS011;5010;45.080;7.634;2023-01-28T13:19:03;11.23;;;9.52;;
9942;SDS011;5010;45.080;7.634;2023-01-28T13:21:32;14.82;;;10.82;;
9942;SDS011;5010;45.080;7.634;2023-01-28T13:24:04;12.90;;;9.13;;
9942;SDS011;5010;45.080;7.634;2023-01-28T13:26:46;13.45;;;10.88;;
9942;SDS011;5010;45.080;7.634;2023-01-28T13:29:18;12.60;;;9.43;;
9942;SDS011;5010;45.080;7.634;2023-01-28T13:31:53;10.88;;;7.90;;
9942;SDS011;5010;45.080;7.634;2023-01-28T13:34:25;11.27;;;9.77;;
9942;SDS011;5010;45.080;7.634;2023-01-28T13:36:57;11.55;;;9.95;;
9942;SDS011;5010;45.080;7.634;2023-01-28T13:39:27;11.95;;;9.20;;
9942;SDS011;5010;45.080;7.634;2023-01-28T13:42:07;10.48;;;8.75;;
9942;SDS011;5010;45.080;7.634;2023-01-28T13:44:45;13.25;;;9.05;;
9942;SDS011;5010;45.080;7.634;2023-01-28T13:47:12;11.80;;;9.45;;
9942;SDS011;5010;45.080;7.634;2023-01-28T13:49:46;12.30;;;9.57;;
9942;SDS011;5010;45.080;7.634;2023-01-28T13:52:15;11.45;;;9.50;;
9942;SDS011;5010;45.080;7.634;2023-01-28T13:54:47;12.25;;;9.85;;
9942;SDS011;5010;45.080;7.634;2023-01-28T14:00:38;11.80;;;8.75;;
9942;SDS011;5010;45.080;7.634;2023-01-28T14:03:23;13.63;;;9.25;;
9942;SDS011;5010;45.080;7.634;2023-01-28T14:09:03;10.98;;;8.48;;
9942;SDS011;5010;45.080;7.634;2023-01-28T14:11:53;11.07;;;9.15;;
9942;SDS011;5010;45.080;7.634;2023-01-28T14:17:45;13.10;;;9.32;;
9942;SDS011;5010;45.080;7.634;2023-01-28T14:20:15;11.95;;;8.93;;
9942;SDS011;5010;45.080;7.634;2023-01-28T14:22:44;13.80;;;9.65;;
9942;SDS011;5010;45.080;7.634;2023-01-28T14:25:13;12.27;;;8.98;;
9942;SDS011;5010;45.080;7.634;2023-01-28T14:27:45;9.63;;;7.90;;
9942;SDS011;5010;45.080;7.634;2023-01-28T14:30:17;9.75;;;7.82;;
9942;SDS011;5010;45.080;7.634;2023-01-28T14:32:51;10.05;;;9.50;;
9942;SDS011;5010;45.080;7.634;2023-01-28T14:35:21;11.45;;;7.30;;
9942;SDS011;5010;45.080;7.634;2023-01-28T14:37:53;9.43;;;8.32;;
9942;SDS011;5010;45.080;7.634;2023-01-28T14:40:21;12.52;;;9.38;;
9942;SDS011;5010;45.080;7.634;2023-01-28T14:42:50;11.65;;;9.45;;
9942;SDS011;5010;45.080;7.634;2023-01-28T14:45:28;11.18;;;10.23;;
9942;SDS011;5010;45.080;7.634;2023-01-28T14:48:16;11.90;;;9.05;;
9942;SDS011;5010;45.080;7.634;2023-01-28T14:50:54;14.35;;;9.32;;
9942;SDS011;5010;45.080;7.634;2023-01-28T14:53:33;11.98;;;7.90;;
9942;SDS011;5010;45.080;7.634;2023-01-28T14:56:14;11.60;;;8.10;;
9942;SDS011;5010;45.080;7.634;2023-01-28T14:58:49;14.00;;;8.18;;
9942;SDS011;5010;45.080;7.634;2023-01-28T15:01:19;11.15;;;9.38;;
9942;SDS011;5010;45.080;7.634;2023-01-28T15:03:49;12.65;;;10.25;;
9942;SDS011;5010;45.080;7.634;2023-01-28T15:06:17;11.10;;;9.40;;
9942;SDS011;5010;45.080;7.634;2023-01-28T15:08:48;14.75;;;10.25;;
9942;SDS011;5010;45.080;7.634;2023-01-28T15:11:15;9.55;;;7.43;;
9942;SDS011;5010;45.080;7.634;2023-01-28T15:13:46;9.52;;;8.10;;
9942;SDS011;5010;45.080;7.634;2023-01-28T15:16:17;10.60;;;8.60;;
9942;SDS011;5010;45.080;7.634;2023-01-28T15:18:46;10.10;;;8.90;;
9942;SDS011;5010;45.080;7.634;2023-01-28T15:21:19;8.70;;;8.18;;
9942;SDS011;5010;45.080;7.634;2023-01-28T15:23:47;12.82;;;9.68;;
9942;SDS011;5010;45.080;7.634;2023-01-28T15:26:19;10.80;;;8.98;;
9942;SDS011;5010;45.080;7.634;2023-01-28T15:28:47;9.23;;;8.15;;
9942;SDS011;5010;45.080;7.634;2023-01-28T15:31:18;10.77;;;7.57;;
9942;SDS011;5010;45.080;7.634;2023-01-28T15:33:54;9.25;;;8.32;;
9942;SDS011;5010;45.080;7.634;2023-01-28T15:36:23;10.25;;;9.75;;
9942;SDS011;5010;45.080;7.634;2023-01-28T15:38:51;13.43;;;10.90;;
9942;SDS011;5010;45.080;7.634;2023-01-28T15:41:19;10.57;;;8.55;;
9942;SDS011;5010;45.080;7.634;2023-01-28T15:43:49;9.35;;;7.22;;
9942;SDS011;5010;45.080;7.634;2023-01-28T15:46:17;10.30;;;8.60;;
9942;SDS011;5010;45.080;7.634;2023-01-28T15:48:48;9.95;;;8.10;;
9942;SDS011;5010;45.080;7.634;2023-01-28T15:51:20;10.13;;;9.55;;
9942;SDS011;5010;45.080;7.634;2023-01-28T15:53:52;9.93;;;8.32;;
9942;SDS011;5010;45.080;7.634;2023-01-28T15:56:23;9.07;;;7.05;;
9942;SDS011;5010;45.080;7.634;2023-01-28T15:58:51;11.90;;;9.75;;
9942;SDS011;5010;45.080;7.634;2023-01-28T16:01:19;10.95;;;8.18;;
9942;SDS011;5010;45.080;7.634;2023-01-28T16:03:49;9.55;;;7.93;;
9942;SDS011;5010;45.080;7.634;2023-01-28T16:06:29;11.70;;;8.35;;
9942;SDS011;5010;45.080;7.634;2023-01-28T16:08:59;11.98;;;9.13;;
9942;SDS011;5010;45.080;7.634;2023-01-28T16:11:29;9.85;;;8.88;;
9942;SDS011;5010;45.080;7.634;2023-01-28T16:13:57;9.35;;;7.50;;
9942;SDS011;5010;45.080;7.634;2023-01-28T16:16:26;10.75;;;8.85;;
9942;SDS011;5010;45.080;7.634;2023-01-28T16:18:54;9.25;;;7.50;;
9942;SDS011;5010;45.080;7.634;2023-01-28T16:21:22;9.90;;;7.38;;
9942;SDS011;5010;45.080;7.634;2023-01-28T16:23:57;12.35;;;8.55;;
9942;SDS011;5010;45.080;7.634;2023-01-28T16:26:26;12.00;;;8.05;;
9942;SDS011;5010;45.080;7.634;2023-01-28T16:28:54;9.75;;;7.00;;
9942;SDS011;5010;45.080;7.634;2023-01-28T16:31:21;10.60;;;7.68;;
9942;SDS011;5010;45.080;7.634;2023-01-28T16:33:48;9.07;;;6.43;;
9942;SDS011;5010;45.080;7.634;2023-01-28T16:36:16;9.88;;;8.00;;
9942;SDS011;5010;45.080;7.634;2023-01-28T16:38:43;9.45;;;7.72;;
9942;SDS011;5010;45.080;7.634;2023-01-28T16:41:13;9.82;;;7.07;;
9942;SDS011;5010;45.080;7.634;2023-01-28T16:43:44;8.95;;;5.63;;
9942;SDS011;5010;45.080;7.634;2023-01-28T16:46:11;10.73;;;8.30;;
9942;SDS011;5010;45.080;7.634;2023-01-28T16:48:38;11.73;;;8.50;;
9942;SDS011;5010;45.080;7.634;2023-01-28T16:51:05;8.25;;;7.80;;
9942;SDS011;5010;45.080;7.634;2023-01-28T16:53:39;13.27;;;10.05;;
9942;SDS011;5010;45.080;7.634;2023-01-28T16:56:08;12.02;;;8.57;;
9942;SDS011;5010;45.080;7.634;2023-01-28T16:58:39;10.18;;;7.65;;
9942;SDS011;5010;45.080;7.634;2023-01-28T17:01:06;10.50;;;7.78;;
9942;SDS011;5010;45.080;7.634;2023-01-28T17:03:33;9.15;;;8.68;;
9942;SDS011;5010;45.080;7.634;2023-01-28T17:06:00;9.10;;;7.20;;
9942;SDS011;5010;45.080;7.634;2023-01-28T17:08:27;10.48;;;7.65;;
9942;SDS011;5010;45.080;7.634;2023-01-28T17:10:54;11.70;;;8.35;;
9942;SDS011;5010;45.080;7.634;2023-01-28T17:13:22;8.73;;;6.53;;
9942;SDS011;5010;45.080;7.634;2023-01-28T17:15:50;12.45;;;8.48;;
9942;SDS011;5010;45.080;7.634;2023-01-28T17:18:17;10.35;;;7.82;;
9942;SDS011;5010;45.080;7.634;2023-01-28T17:20:44;10.40;;;9.60;;
9942;SDS011;5010;45.080;7.634;2023-01-28T17:23:12;11.50;;;7.78;;
9942;SDS011;5010;45.080;7.634;2023-01-28T17:25:46;11.85;;;7.25;;
9942;SDS011;5010;45.080;7.634;2023-01-28T17:28:13;10.80;;;8.40;;
9942;SDS011;5010;45.080;7.634;2023-01-28T17:30:41;11.10;;;8.18;;
9942;SDS011;5010;45.080;7.634;2023-01-28T17:33:09;11.48;;;7.97;;
9942;SDS011;5010;45.080;7.634;2023-01-28T17:35:36;12.00;;;8.45;;
9942;SDS011;5010;45.080;7.634;2023-01-28T17:38:03;9.93;;;7.80;;
9942;SDS011;5010;45.080;7.634;2023-01-28T17:40:30;10.18;;;8.43;;
9942;SDS011;5010;45.080;7.634;2023-01-28T17:42:57;10.45;;;8.65;;
9942;SDS011;5010;45.080;7.634;2023-01-28T17:45:24;9.98;;;8.25;;
9942;SDS011;5010;45.080;7.634;2023-01-28T17:47:51;12.40;;;8.23;;
9942;SDS011;5010;45.080;7.634;2023-01-28T17:50:20;9.75;;;8.30;;
9942;SDS011;5010;45.080;7.634;2023-01-28T17:52:47;11.07;;;9.18;;
9942;SDS011;5010;45.080;7.634;2023-01-28T17:55:14;11.95;;;8.68;;
9942;SDS011;5010;45.080;7.634;2023-01-28T17:57:42;10.52;;;8.60;;
9942;SDS011;5010;45.080;7.634;2023-01-28T18:00:10;10.27;;;8.95;;
9942;SDS011;5010;45.080;7.634;2023-01-28T18:02:37;10.40;;;7.95;;
9942;SDS011;5010;45.080;7.634;2023-01-28T18:05:04;13.27;;;9.63;;
9942;SDS011;5010;45.080;7.634;2023-01-28T18:07:33;14.40;;;10.27;;
9942;SDS011;5010;45.080;7.634;2023-01-28T18:10:00;10.70;;;8.38;;
9942;SDS011;5010;45.080;7.634;2023-01-28T18:12:27;12.07;;;8.10;;
9942;SDS011;5010;45.080;7.634;2023-01-28T18:14:54;12.20;;;9.30;;
9942;SDS011;5010;45.080;7.634;2023-01-28T18:17:21;11.45;;;8.95;;
9942;SDS011;5010;45.080;7.634;2023-01-28T18:19:51;13.48;;;8.43;;
9942;SDS011;5010;45.080;7.634;2023-01-28T18:22:17;12.13;;;8.98;;
9942;SDS011;5010;45.080;7.634;2023-01-28T18:24:46;11.32;;;8.48;;
9942;SDS011;5010;45.080;7.634;2023-01-28T18:27:12;15.27;;;8.57;;
9942;SDS011;5010;45.080;7.634;2023-01-28T18:29:39;8.88;;;8.35;;
9942;SDS011;5010;45.080;7.634;2023-01-28T18:32:06;13.30;;;8.75;;
9942;SDS011;5010;45.080;7.634;2023-01-28T18:34:33;10.70;;;9.00;;
9942;SDS011;5010;45.080;7.634;2023-01-28T18:37:00;11.20;;;9.25;;
9942;SDS011;5010;45.080;7.634;2023-01-28T18:39:30;15.38;;;9.68;;
9942;SDS011;5010;45.080;7.634;2023-01-28T18:41:58;14.05;;;10.38;;
9942;SDS011;5010;45.080;7.634;2023-01-28T18:44:26;11.82;;;8.90;;
9942;SDS011;5010;45.080;7.634;2023-01-28T18:46:55;13.23;;;9.80;;
9942;SDS011;5010;45.080;7.634;2023-01-28T18:49:22;14.88;;;9.75;;
9942;SDS011;5010;45.080;7.634;2023-01-28T18:51:49;10.93;;;8.75;;
9942;SDS011;5010;45.080;7.634;2023-01-28T18:54:16;9.05;;;7.57;;
9942;SDS011;5010;45.080;7.634;2023-01-28T18:56:44;12.15;;;8.75;;
9942;SDS011;5010;45.080;7.634;2023-01-28T18:59:12;11.85;;;9.30;;
9942;SDS011;5010;45.080;7.634;2023-01-28T19:01:39;15.13;;;10.18;;
9942;SDS011;5010;45.080;7.634;2023-01-28T19:04:07;11.82;;;9.40;;
9942;SDS011;5010;45.080;7.634;2023-01-28T19:06:35;14.50;;;10.25;;
9942;SDS011;5010;45.080;7.634;2023-01-28T19:09:03;13.23;;;9.88;;
9942;SDS011;5010;45.080;7.634;2023-01-28T19:11:31;12.55;;;9.27;;
9942;SDS011;5010;45.080;7.634;2023-01-28T19:13:59;11.07;;;9.30;;
9942;SDS011;5010;45.080;7.634;2023-01-28T19:16:27;12.00;;;9.45;;
9942;SDS011;5010;45.080;7.634;2023-01-28T19:18:55;12.48;;;9.48;;
9942;SDS011;5010;45.080;7.634;2023-01-28T19:21:23;12.52;;;8.57;;
9942;SDS011;5010;45.080;7.634;2023-01-28T19:23:54;11.52;;;9.88;;
9942;SDS011;5010;45.080;7.634;2023-01-28T19:26:21;12.77;;;9.82;;
9942;SDS011;5010;45.080;7.634;2023-01-28T19:28:49;11.82;;;9.68;;
9942;SDS011;5010;45.080;7.634;2023-01-28T19:31:16;10.63;;;8.15;;
9942;SDS011;5010;45.080;7.634;2023-01-28T19:33:46;10.23;;;8.40;;
9942;SDS011;5010;45.080;7.634;2023-01-28T19:36:13;15.13;;;9.00;;
9942;SDS011;5010;45.080;7.634;2023-01-28T19:38:40;10.75;;;8.60;;
9942;SDS011;5010;45.080;7.634;2023-01-28T19:41:08;15.13;;;10.13;;
9942;SDS011;5010;45.080;7.634;2023-01-28T19:43:37;12.88;;;9.15;;
9942;SDS011;5010;45.080;7.634;2023-01-28T19:46:04;10.65;;;9.68;;
9942;SDS011;5010;45.080;7.634;2023-01-28T19:48:32;14.55;;;9.55;;
9942;SDS011;5010;45.080;7.634;2023-01-28T19:51:04;15.93;;;9.07;;
9942;SDS011;5010;45.080;7.634;2023-01-28T19:53:32;11.43;;;9.68;;
9942;SDS011;5010;45.080;7.634;2023-01-28T19:56:00;12.70;;;8.98;;
9942;SDS011;5010;45.080;7.634;2023-01-28T19:58:28;14.85;;;10.30;;
9942;SDS011;5010;45.080;7.634;2023-01-28T20:01:01;13.95;;;10.75;;
9942;SDS011;5010;45.080;7.634;2023-01-28T20:03:29;13.38;;;10.15;;
9942;SDS011;5010;45.080;7.634;2023-01-28T20:05:57;12.13;;;10.18;;
9942;SDS011;5010;45.080;7.634;2023-01-28T20:08:27;12.10;;;9.95;;
9942;SDS011;5010;45.080;7.634;2023-01-28T20:11:00;15.88;;;10.57;;
9942;SDS011;5010;45.080;7.634;2023-01-28T20:13:28;10.63;;;9.07;;
9942;SDS011;5010;45.080;7.634;2023-01-28T20:15:57;12.63;;;8.75;;
9942;SDS011;5010;45.080;7.634;2023-01-28T20:18:24;12.35;;;8.82;;
9942;SDS011;5010;45.080;7.634;2023-01-28T20:20:52;12.15;;;10.90;;
9942;SDS011;5010;45.080;7.634;2023-01-28T20:23:20;11.60;;;10.30;;
9942;SDS011;5010;45.080;7.634;2023-01-28T20:25:51;10.90;;;8.75;;
9942;SDS011;5010;45.080;7.634;2023-01-28T20:28:19;12.68;;;9.60;;
9942;SDS011;5010;45.080;7.634;2023-01-28T20:30:47;13.10;;;9.93;;
9942;SDS011;5010;45.080;7.634;2023-01-28T20:33:14;15.10;;;10.27;;
9942;SDS011;5010;45.080;7.634;2023-01-28T20:35:41;15.18;;;10.52;;
9942;SDS011;5010;45.080;7.634;2023-01-28T20:38:08;15.48;;;11.38;;
9942;SDS011;5010;45.080;7.634;2023-01-28T20:40:36;12.15;;;9.57;;
9942;SDS011;5010;45.080;7.634;2023-01-28T20:43:07;9.90;;;9.45;;
9942;SDS011;5010;45.080;7.634;2023-01-28T20:45:34;11.15;;;10.55;;
9942;SDS011;5010;45.080;7.634;2023-01-28T20:48:02;14.90;;;11.20;;
9942;SDS011;5010;45.080;7.634;2023-01-28T20:50:29;11.80;;;9.80;;
9942;SDS011;5010;45.080;7.634;2023-01-28T20:52:56;11.98;;;11.10;;
9942;SDS011;5010;45.080;7.634;2023-01-28T20:55:24;13.93;;;11.07;;
9942;SDS011;5010;45.080;7.634;2023-01-28T20:57:52;13.85;;;10.95;;
9942;SDS011;5010;45.080;7.634;2023-01-28T21:00:21;12.13;;;10.13;;
9942;SDS011;5010;45.080;7.634;2023-01-28T21:02:49;15.18;;;11.40;;
9942;SDS011;5010;45.080;7.634;2023-01-28T21:05:16;14.10;;;11.35;;
9942;SDS011;5010;45.080;7.634;2023-01-28T21:07:43;17.50;;;11.70;;
9942;SDS011;5010;45.080;7.634;2023-01-28T21:10:10;15.75;;;12.35;;
9942;SDS011;5010;45.080;7.634;2023-01-28T21:12:37;13.85;;;10.85;;
9942;SDS011;5010;45.080;7.634;2023-01-28T21:15:04;16.27;;;11.15;;
9942;SDS011;5010;45.080;7.634;2023-01-28T21:17:34;14.93;;;11.57;;
9942;SDS011;5010;45.080;7.634;2023-01-28T21:20:01;18.13;;;13.27;;
9942;SDS011;5010;45.080;7.634;2023-01-28T21:22:28;15.68;;;13.45;;
9942;SDS011;5010;45.080;7.634;2023-01-28T21:24:55;17.63;;;12.43;;
9942;SDS011;5010;45.080;7.634;2023-01-28T21:27:22;12.30;;;11.70;;
9942;SDS011;5010;45.080;7.634;2023-01-28T21:29:49;14.85;;;11.38;;
9942;SDS011;5010;45.080;7.634;2023-01-28T21:32:16;20.58;;;14.88;;
9942;SDS011;5010;45.080;7.634;2023-01-28T21:34:46;17.60;;;13.07;;
9942;SDS011;5010;45.080;7.634;2023-01-28T21:37:12;18.27;;;12.20;;
9942;SDS011;5010;45.080;7.634;2023-01-28T21:39:39;15.52;;;11.50;;
9942;SDS011;5010;45.080;7.634;2023-01-28T21:42:06;15.45;;;13.23;;
9942;SDS011;5010;45.080;7.634;2023-01-28T21:44:33;18.10;;;14.63;;
9942;SDS011;5010;45.080;7.634;2023-01-28T21:47:00;22.55;;;13.73;;
9942;SDS011;5010;45.080;7.634;2023-01-28T21:49:27;19.63;;;16.05;;
9942;SDS011;5010;45.080;7.634;2023-01-28T21:51:55;16.60;;;15.55;;
9942;SDS011;5010;45.080;7.634;2023-01-28T21:54:22;19.95;;;15.32;;
9942;SDS011;5010;45.080;7.634;2023-01-28T21:56:49;25.30;;;18.25;;
9942;SDS011;5010;45.080;7.634;2023-01-28T21:59:17;19.90;;;16.55;;
9942;SDS011;5010;45.080;7.634;2023-01-28T22:01:52;18.65;;;14.27;;
9942;SDS011;5010;45.080;7.634;2023-01-28T22:04:20;19.17;;;14.63;;
9942;SDS011;5010;45.080;7.634;2023-01-28T22:06:47;25.20;;;17.70;;
9942;SDS011;5010;45.080;7.634;2023-01-28T22:09:15;16.63;;;15.57;;
9942;SDS011;5010;45.080;7.634;2023-01-28T22:11:43;15.00;;;14.23;;
9942;SDS011;5010;45.080;7.634;2023-01-28T22:14:10;17.60;;;14.68;;
9942;SDS011;5010;45.080;7.634;2023-01-28T22:16:37;17.70;;;13.32;;
9942;SDS011;5010;45.080;7.634;2023-01-28T22:19:05;21.58;;;13.30;;
9942;SDS011;5010;45.080;7.634;2023-01-28T22:21:31;14.85;;;12.48;;
9942;SDS011;5010;45.080;7.634;2023-01-28T22:24:05;14.85;;;12.05;;
9942;SDS011;5010;45.080;7.634;2023-01-28T22:26:35;18.27;;;12.63;;
9942;SDS011;5010;45.080;7.634;2023-01-28T22:29:04;14.60;;;13.15;;
9942;SDS011;5010;45.080;7.634;2023-01-28T22:31:32;13.80;;;11.75;;
9942;SDS011;5010;45.080;7.634;2023-01-28T22:33:59;21.55;;;13.30;;
9942;SDS011;5010;45.080;7.634;2023-01-28T22:36:26;16.73;;;12.95;;
9942;SDS011;5010;45.080;7.634;2023-01-28T22:38:53;12.75;;;9.90;;
9942;SDS011;5010;45.080;7.634;2023-01-28T22:41:21;16.65;;;11.52;;
9942;SDS011;5010;45.080;7.634;2023-01-28T22:43:50;16.75;;;12.70;;
9942;SDS011;5010;45.080;7.634;2023-01-28T22:46:17;15.43;;;13.07;;
9942;SDS011;5010;45.080;7.634;2023-01-28T22:48:46;13.93;;;12.07;;
9942;SDS011;5010;45.080;7.634;2023-01-28T22:51:14;16.58;;;12.32;;
9942;SDS011;5010;45.080;7.634;2023-01-28T22:53:44;13.40;;;11.13;;
9942;SDS011;5010;45.080;7.634;2023-01-28T22:56:12;15.60;;;11.63;;
9942;SDS011;5010;45.080;7.634;2023-01-28T22:58:39;15.32;;;13.95;;
9942;SDS011;5010;45.080;7.634;2023-01-28T23:01:08;15.50;;;12.93;;
9942;SDS011;5010;45.080;7.634;2023-01-28T23:03:35;15.38;;;12.45;;
9942;SDS011;5010;45.080;7.634;2023-01-28T23:06:02;16.13;;;10.63;;
9942;SDS011;5010;45.080;7.634;2023-01-28T23:08:31;16.60;;;12.02;;
9942;SDS011;5010;45.080;7.634;2023-01-28T23:10:59;11.63;;;11.02;;
9942;SDS011;5010;45.080;7.634;2023-01-28T23:13:28;14.60;;;11.23;;
9942;SDS011;5010;45.080;7.634;2023-01-28T23:16:18;15.15;;;13.50;;
9942;SDS011;5010;45.080;7.634;2023-01-28T23:19:02;14.43;;;13.02;;
9942;SDS011;5010;45.080;7.634;2023-01-28T23:21:46;14.23;;;11.98;;
9942;SDS011;5010;45.080;7.634;2023-01-28T23:24:31;20.92;;;13.23;;
9942;SDS011;5010;45.080;7.634;2023-01-28T23:26:59;18.05;;;13.88;;
9942;SDS011;5010;45.080;7.634;2023-01-28T23:29:27;15.40;;;13.43;;
9942;SDS011;5010;45.080;7.634;2023-01-28T23:31:56;16.98;;;16.13;;
9942;SDS011;5010;45.080;7.634;2023-01-28T23:34:26;17.67;;;15.18;;
9942;SDS011;5010;45.080;7.634;2023-01-28T23:36:54;18.60;;;14.82;;
9942;SDS011;5010;45.080;7.634;2023-01-28T23:39:21;19.67;;;13.85;;
9942;SDS011;5010;45.080;7.634;2023-01-28T23:41:48;16.13;;;13.48;;
9942;SDS011;5010;45.080;7.634;2023-01-28T23:44:15;15.55;;;13.55;;
9942;SDS011;5010;45.080;7.634;2023-01-28T23:46:42;15.30;;;14.50;;
9942;SDS011;5010;45.080;7.634;2023-01-28T23:49:10;15.60;;;12.70;;
9942;SDS011;5010;45.080;7.634;2023-01-28T23:51:37;17.23;;;14.68;;
9942;SDS011;5010;45.080;7.634;2023-01-28T23:54:04;17.77;;;14.95;;
9942;SDS011;5010;45.080;7.634;2023-01-28T23:56:32;15.77;;;12.95;;
9942;SDS011;5010;45.080;7.634;2023-01-28T23:58:59;16.40;;;13.10;;
